Latest Weather Observations for Wattamolla

IDN60801

Issued at 2:52 pm EST Tuesday 19 June 2018 (issued every 10 minutes, with the page automatically refreshed every 10 minutes)

About weather observations | Map of weather stations | Latest weather observations for NSW | Other Formats
Station Details ID: 066208 Name: WATTAMOLLA AWS Lat: -34.14 Lon: 151.12 Height: 44.0 m
Data from the previous 72 hours. | See also: Recent months for locations in New South Wales
Date/Time
EST
Temp
°C
App
Temp
°C
Dew
Point
°C
Rel
Hum
%
Delta-T
°C
Wind Press
QNH
hPa
Press
MSL
hPa
Rain since
9am
mm
Dir  Spd
km/h
Gust
km/h
Spd
kts
Gust
kts
19/02:30pm - - - - - S 57 80 31 43 - - -
19/02:07pm - - - - - SSE 69 87 37 47 - - -
19/02:00pm - - - - - SSE 72 87 39 47 - - -
19/01:39pm - - - - - S 67 85 36 46 - - -
19/01:30pm - - - - - S 70 85 38 46 - - -
19/01:00pm - - - - - S 63 82 34 44 - - -
19/12:38pm - - - - - S 57 102 31 55 - - -
19/12:30pm - - - - - S 52 76 28 41 - - -
19/12:27pm - - - - - S 46 76 25 41 - - -
19/12:14pm - - - - - S 54 76 29 41 - - -
19/12:01pm - - - - - S 65 83 35 45 - - -
19/12:00pm - - - - - S 67 83 36 45 - - -
19/11:30am - - - - - S 70 95 38 51 - - -
19/11:16am - - - - - S 57 78 31 42 - - -
19/11:00am - - - - - S 65 100 35 54 - - -
19/10:57am - - - - - S 74 100 40 54 - - -
19/10:51am - - - - - S 78 100 42 54 - - -
19/10:46am - - - - - S 65 85 35 46 - - -
19/10:30am - - - - - S 56 82 30 44 - - -
19/10:00am - - - - - S 59 80 32 43 - - -
19/09:30am - - - - - SSE 54 72 29 39 - - -
19/09:00am - - - - - S 63 83 34 45 - - -
19/08:30am - - - - - S 72 95 39 51 - - -
19/08:00am - - - - - S 69 91 37 49 - - -
19/07:35am - - - - - S 63 82 34 44 - - -
19/07:30am - - - - - S 67 82 36 44 - - -
19/07:23am - - - - - S 72 93 39 50 - - -
19/07:19am - - - - - S 72 93 39 50 - - -
19/07:00am - - - - - S 57 82 31 44 - - -
19/06:54am - - - - - S 59 82 32 44 - - -
19/06:50am - - - - - SSE 56 80 30 43 - - -
19/06:37am - - - - - S 56 80 30 43 - - -
19/06:30am - - - - - S 65 87 35 47 - - -
19/06:00am - - - - - S 65 91 35 49 - - -
19/05:49am - - - - - S 72 91 39 49 - - -
19/05:40am - - - - - S 61 87 33 47 - - -
19/05:30am - - - - - SSE 50 72 27 39 - - -
19/05:00am - - - - - S 44 63 24 34 - - -
19/04:30am - - - - - S 52 74 28 40 - - -
19/04:00am - - - - - SSE 48 74 26 40 - - -
19/03:30am - - - - - S 46 69 25 37 - - -
19/03:00am - - - - - S 48 78 26 42 - - -
19/02:30am - - - - - S 52 76 28 41 - - -
19/02:01am - - - - - S 63 82 34 44 - - -
19/02:00am - - - - - S 65 82 35 44 - - -
19/01:31am - - - - - S 54 83 29 45 - - -
19/01:30am - - - - - S 52 78 28 42 - - -
19/01:06am - - - - - S 50 82 27 44 - - -
19/01:04am - - - - - S 54 82 29 44 - - -
19/01:00am - - - - - S 59 85 32 46 - - -
19/12:36am - - - - - S 67 91 36 49 - - -
19/12:30am - - - - - S 72 91 39 49 - - -
19/12:29am - - - - - S 72 91 39 49 - - -
19/12:15am - - - - - S 65 89 35 48 - - -
19/12:00am - - - - - S 56 82 30 44 - - -
 
Date/Time
EST
Temp
°C
App
Temp
°C
Dew
Point
°C
Rel
Hum
%
Delta-T
°C
Wind Press
QNH
hPa
Press
MSL
hPa
Rain since
9am
mm
Dir  Spd
km/h
Gust
km/h
Spd
kts
Gust
kts
18/11:30pm - - - - - S 52 74 28 40 - - -
18/11:00pm - - - - - S 54 78 29 42 - - -
18/10:54pm - - - - - S 52 78 28 42 - - -
18/10:52pm - - - - - S 52 78 28 42 - - -
18/10:50pm - - - - - S 48 70 26 38 - - -
18/10:48pm - - - - - S 50 74 27 40 - - -
18/10:30pm - - - - - S 61 80 33 43 - - -
18/10:28pm - - - - - S 61 80 33 43 - - -
18/10:24pm - - - - - S 61 80 33 43 - - -
18/10:00pm - - - - - S 74 95 40 51 - - -
18/09:33pm - - - - - S 65 85 35 46 - - -
18/09:30pm - - - - - S 63 80 34 43 - - -
18/09:25pm - - - - - S 57 80 31 43 - - -
18/09:00pm - - - - - S 72 93 39 50 - - -
18/08:48pm - - - - - S 72 93 39 50 - - -
18/08:41pm - - - - - S 69 91 37 49 - - -
18/08:34pm - - - - - S 67 91 36 49 - - -
18/08:30pm - - - - - S 74 98 40 53 - - -
18/08:00pm - - - - - S 65 83 35 45 - - -
18/07:37pm - - - - - S 63 80 34 43 - - -
18/07:31pm - - - - - S 74 93 40 50 - - -
18/07:30pm - - - - - S 74 93 40 50 - - -
18/07:23pm - - - - - S 67 93 36 50 - - -
18/07:00pm - - - - - S 57 76 31 41 - - -
18/06:58pm - - - - - S 59 78 32 42 - - -
18/06:37pm - - - - - S 74 95 40 51 - - -
18/06:31pm - - - - - S 85 104 46 56 - - -
18/06:30pm - - - - - S 87 104 47 56 - - -
18/06:22pm - - - - - S 87 102 47 55 - - -
18/06:10pm - - - - - S 72 106 39 57 - - -
18/06:00pm - - - - - S 72 87 39 47 - - -
18/05:51pm - - - - - S 69 100 37 54 - - -
18/05:49pm - - - - - S 65 100 35 54 - - -
18/05:48pm - - - - - S 61 100 33 54 - - -
18/05:34pm - - - - - S 63 91 34 49 - - -
18/05:31pm - - - - - S 74 102 40 55 - - -
18/05:30pm - - - - - S 78 102 42 55 - - -
18/05:27pm - - - - - S 83 102 45 55 - - -
18/05:23pm - - - - - S 78 102 42 55 - - -
18/05:17pm - - - - - S 65 89 35 48 - - -
18/05:12pm - - - - - SSE 56 80 30 43 - - -
18/05:10pm - - - - - SSE 52 72 28 39 - - -
18/05:00pm - - - - - SSE 54 72 29 39 - - -
18/04:58pm - - - - - SSE 59 93 32 50 - - -
18/04:35pm - - - - - S 70 95 38 51 - - -
18/04:30pm - - - - - S 67 78 36 42 - - -
18/04:00pm - - - - - S 57 70 31 38 - - -
18/03:36pm - - - - - S 70 89 38 48 - - -
18/03:30pm - - - - - S 76 87 41 47 - - -
18/03:11pm - - - - - S 72 91 39 49 - - -
18/03:00pm - - - - - S 63 76 34 41 - - -
18/02:42pm - - - - - S 72 91 39 49 - - -
18/02:30pm - - - - - S 69 89 37 48 - - -
18/02:25pm - - - - - S 61 82 33 44 - - -
18/02:17pm - - - - - S 61 78 33 42 - - -
18/02:16pm - - - - - S 63 80 34 43 - - -
18/02:04pm - - - - - S 70 91 38 49 - - -
18/02:00pm - - - - - S 67 83 36 45 - - -
18/01:35pm - - - - - S 61 80 33 43 - - -
18/01:30pm - - - - - S 63 78 34 42 - - -
18/01:00pm - - - - - S 65 83 35 45 - - -
18/12:59pm - - - - - S 65 83 35 45 - - -
18/12:51pm - - - - - S 46 78 25 42 - - -
18/12:46pm - - - - - S 37 65 20 35 - - -
18/12:39pm - - - - - S 41 59 22 32 - - -
18/12:31pm - - - - - S 54 74 29 40 - - -
18/12:30pm - - - - - S 54 74 29 40 - - -
18/12:25pm - - - - - S 50 74 27 40 - - -
18/12:00pm - - - - - S 43 65 23 35 - - -
18/11:42am - - - - - S 48 69 26 37 - - -
18/11:30am - - - - - S 63 83 34 45 - - -
18/11:00am - - - - - S 50 70 27 38 - - -
18/10:30am - - - - - S 50 72 27 39 - - -
18/10:20am - - - - - S 52 78 28 42 - - -
18/10:03am - - - - - S 48 83 26 45 - - -
18/10:02am - - - - - S 44 78 24 42 - - -
18/10:00am - - - - - S 39 63 21 34 - - -
18/09:31am - - - - - S 57 87 31 47 - - -
18/09:30am - - - - - S 61 87 33 47 - - -
18/09:24am - - - - - S 59 87 32 47 - - -
18/09:21am - - - - - S 56 82 30 44 - - -
18/09:00am - - - - - S 48 67 26 36 - - -
18/08:30am - - - - - S 48 78 26 42 - - -
18/08:00am - - - - - S 41 61 22 33 - - -
18/07:30am - - - - - S 50 72 27 39 - - -
18/07:25am - - - - - S 48 72 26 39 - - -
18/07:24am - - - - - S 48 72 26 39 - - -
18/07:00am - - - - - S 35 61 19 33 - - -
18/06:30am - - - - - S 43 65 23 35 - - -
18/06:00am - - - - - S 37 69 20 37 - - -
18/05:42am - - - - - S 35 63 19 34 - - -
18/05:41am - - - - - SSW 35 57 19 31 - - -
18/05:30am - - - - - SSW 32 54 17 29 - - -
18/05:00am - - - - - SSW 30 48 16 26 - - -
18/04:31am - - - - - SSW 32 54 17 29 - - -
18/04:30am - - - - - SSW 32 46 17 25 - - -
18/04:14am - - - - - SSW 35 63 19 34 - - -
18/04:00am - - - - - S 37 65 20 35 - - -
18/03:48am - - - - - SSW 33 78 18 42 - - -
18/03:44am - - - - - SSW 28 50 15 27 - - -
18/03:30am - - - - - SW 26 43 14 23 - - -
18/03:00am - - - - - SW 24 35 13 19 - - -
18/02:33am - - - - - SW 28 46 15 25 - - -
18/02:30am - - - - - SW 28 43 15 23 - - -
18/02:00am - - - - - SW 28 46 15 25 - - -
18/01:30am - - - - - SW 30 46 16 25 - - -
18/01:12am - - - - - SW 28 52 15 28 - - -
18/01:00am - - - - - WSW 20 35 11 19 - - -
18/12:30am - - - - - W 24 37 13 20 - - -
18/12:00am - - - - - W 24 37 13 20 - - -
 
Date/Time
EST
Temp
°C
App
Temp
°C
Dew
Point
°C
Rel
Hum
%
Delta-T
°C
Wind Press
QNH
hPa
Press
MSL
hPa
Rain since
9am
mm
Dir  Spd
km/h
Gust
km/h
Spd
kts
Gust
kts
17/11:33pm - - - - - W 28 46 15 25 - - -
17/11:30pm - - - - - W 28 41 15 22 - - -
17/11:05pm - - - - - W 30 48 16 26 - - -
17/11:00pm - - - - - W 32 48 17 26 - - -
17/10:57pm - - - - - W 30 48 16 26 - - -
17/10:30pm - - - - - WNW 30 41 16 22 - - -
17/10:00pm - - - - - WNW 26 37 14 20 - - -
17/09:30pm - - - - - WNW 26 39 14 21 - - -
17/09:00pm - - - - - WNW 30 44 16 24 - - -
17/08:30pm - - - - - WNW 30 41 16 22 - - -
17/08:00pm - - - - - WNW 30 41 16 22 - - -
17/07:30pm - - - - - WNW 32 48 17 26 - - -
17/07:00pm - - - - - WNW 32 56 17 30 - - -
17/06:30pm - - - - - WNW 33 52 18 28 - - -
17/06:08pm - - - - - WNW 28 50 15 27 - - -
17/06:00pm - - - - - WNW 19 32 10 17 - - -
17/05:30pm - - - - - NNE 13 26 7 14 - - -
17/05:00pm - - - - - WNW 22 41 12 22 - - -
17/04:30pm - - - - - WSW 13 24 7 13 - - -
17/04:00pm - - - - - WNW 30 48 16 26 - - -
17/03:30pm - - - - - WNW 33 52 18 28 - - -
17/03:04pm - - - - - W 28 54 15 29 - - -
17/03:00pm - - - - - W 24 54 13 29 - - -
17/02:30pm - - - - - WNW 32 56 17 30 - - -
17/02:00pm - - - - - W 37 63 20 34 - - -
17/01:30pm - - - - - WNW 32 54 17 29 - - -
17/01:00pm - - - - - W 35 65 19 35 - - -
17/12:30pm - - - - - WNW 35 57 19 31 - - -
17/12:00pm - - - - - WNW 35 63 19 34 - - -
17/11:30am - - - - - W 39 57 21 31 - - -
17/11:00am - - - - - WNW 37 56 20 30 - - -
17/10:30am - - - - - WNW 28 54 15 29 - - -
17/10:00am - - - - - WNW 32 52 17 28 - - -
17/09:30am - - - - - WNW 30 50 16 27 - - -
17/09:21am - - - - - WNW 28 50 15 27 - - -
17/09:00am - - - - - WNW 17 30 9 16 - - -
17/08:30am - - - - - NNE 11 17 6 9 - - -
17/08:00am - - - - - NW 15 33 8 18 - - -
17/07:30am - - - - - NW 20 26 11 14 - - -
17/07:00am - - - - - NW 19 26 10 14 - - -
17/06:30am - - - - - NNW 11 15 6 8 - - -
17/06:00am - - - - - NNW 13 15 7 8 - - -
17/05:30am - - - - - WNW 9 13 5 7 - - -
17/05:00am - - - - - NNW 9 11 5 6 - - -
17/04:30am - - - - - WNW 13 20 7 11 - - -
17/04:00am - - - - - NW 15 17 8 9 - - -
17/03:30am - - - - - NW 17 19 9 10 - - -
17/03:00am - - - - - NNW 11 17 6 9 - - -
17/02:30am - - - - - NNW 9 11 5 6 - - -
17/02:00am - - - - - NNW 9 11 5 6 - - -
17/01:30am - - - - - N 9 11 5 6 - - -
17/01:00am - - - - - NW 7 7 4 4 - - -
17/12:30am - - - - - WNW 11 13 6 7 - - -
17/12:00am - - - - - NW 11 13 6 7 - - -
 
Date/Time
EST
Temp
°C
App
Temp
°C
Dew
Point
°C
Rel
Hum
%
Delta-T
°C
Wind Press
QNH
hPa
Press
MSL
hPa
Rain since
9am
mm
Dir  Spd
km/h
Gust
km/h
Spd
kts
Gust
kts
16/11:30pm - - - - - NW 13 22 7 12 - - -
16/11:00pm - - - - - WNW 17 32 9 17 - - -
16/10:30pm - - - - - NW 15 28 8 15 - - -
16/10:00pm - - - - - SW 13 22 7 12 - - -
16/09:30pm - - - - - SW 13 15 7 8 - - -
16/09:00pm - - - - - W 15 19 8 10 - - -
16/08:30pm - - - - - W 15 19 8 10 - - -
16/08:00pm - - - - - W 17 19 9 10 - - -
16/07:30pm - - - - - W 15 22 8 12 - - -
16/07:00pm - - - - - NW 9 11 5 6 - - -
16/06:30pm - - - - - WNW 17 30 9 16 - - -
16/06:00pm - - - - - NW 17 26 9 14 - - -
16/05:30pm - - - - - NW 15 26 8 14 - - -
16/05:00pm - - - - - WNW 17 32 9 17 - - -
16/04:30pm - - - - - NW 17 28 9 15 - - -
16/04:00pm - - - - - WNW 24 37 13 20 - - -
16/03:30pm - - - - - NW 13 30 7 16 - - -
16/03:00pm - - - - - NW 19 30 10 16 - - -

Other Formats:

Comma delimited format used in spreadsheet applications
http://www.bom.gov.au/fwo/IDN60801/IDN60801.95752.axf

JavaScript Object Notation format (JSON) in row-major order
http://www.bom.gov.au/fwo/IDN60801/IDN60801.95752.json